sensor_id;sensor_type;location;lat;lon;timestamp;pressure;altitude;pressure_sealevel;temperature;humidity
14818;BME280;7500;57.698;11.986;2022-11-21T00:01:48;100487.84;;;2.76;100.00
14818;BME280;7500;57.698;11.986;2022-11-21T00:04:15;100482.78;;;2.71;100.00
14818;BME280;7500;57.698;11.986;2022-11-21T00:06:42;100484.56;;;2.69;100.00
14818;BME280;7500;57.698;11.986;2022-11-21T00:09:09;100479.34;;;2.69;100.00
14818;BME280;7500;57.698;11.986;2022-11-21T00:11:35;100485.31;;;2.74;100.00
14818;BME280;7500;57.698;11.986;2022-11-21T00:14:02;100480.56;;;2.55;100.00
14818;BME280;7500;57.698;11.986;2022-11-21T00:16:31;100456.28;;;2.54;100.00
14818;BME280;7500;57.698;11.986;2022-11-21T00:18:57;100470.91;;;2.60;100.00
14818;BME280;7500;57.698;11.986;2022-11-21T00:21:24;100471.09;;;2.51;100.00
14818;BME280;7500;57.698;11.986;2022-11-21T00:23:51;100463.97;;;2.59;100.00
14818;BME280;7500;57.698;11.986;2022-11-21T00:26:18;100456.50;;;2.44;100.00
14818;BME280;7500;57.698;11.986;2022-11-21T00:28:45;100457.25;;;2.49;100.00
14818;BME280;7500;57.698;11.986;2022-11-21T00:31:18;100454.69;;;2.47;100.00
14818;BME280;7500;57.698;11.986;2022-11-21T00:33:46;100446.97;;;2.43;100.00
14818;BME280;7500;57.698;11.986;2022-11-21T00:36:13;100445.88;;;2.53;100.00
14818;BME280;7500;57.698;11.986;2022-11-21T00:38:40;100439.91;;;2.48;100.00
14818;BME280;7500;57.698;11.986;2022-11-21T00:41:06;100439.97;;;2.45;100.00
14818;BME280;7500;57.698;11.986;2022-11-21T00:43:33;100446.75;;;2.88;100.00
14818;BME280;7500;57.698;11.986;2022-11-21T00:46:00;100429.72;;;3.07;100.00
14818;BME280;7500;57.698;11.986;2022-11-21T00:48:27;100441.25;;;2.99;100.00
14818;BME280;7500;57.698;11.986;2022-11-21T00:50:56;100430.00;;;2.97;100.00
14818;BME280;7500;57.698;11.986;2022-11-21T00:53:24;100428.50;;;2.88;100.00
14818;BME280;7500;57.698;11.986;2022-11-21T00:55:51;100417.25;;;2.86;100.00
14818;BME280;7500;57.698;11.986;2022-11-21T00:58:18;100413.91;;;2.81;100.00
14818;BME280;7500;57.698;11.986;2022-11-21T01:00:45;100416.16;;;2.95;100.00
14818;BME280;7500;57.698;11.986;2022-11-21T01:03:11;100403.03;;;2.98;100.00
14818;BME280;7500;57.698;11.986;2022-11-21T01:05:38;100405.63;;;2.98;100.00
14818;BME280;7500;57.698;11.986;2022-11-21T01:08:06;100396.25;;;2.91;100.00
14818;BME280;7500;57.698;11.986;2022-11-21T01:10:33;100392.88;;;2.87;100.00
14818;BME280;7500;57.698;11.986;2022-11-21T01:13:00;100388.28;;;2.97;100.00
14818;BME280;7500;57.698;11.986;2022-11-21T01:15:27;100389.19;;;2.94;100.00
14818;BME280;7500;57.698;11.986;2022-11-21T01:17:54;100383.22;;;2.91;100.00
14818;BME280;7500;57.698;11.986;2022-11-21T01:20:21;100379.06;;;2.84;100.00
14818;BME280;7500;57.698;11.986;2022-11-21T01:22:48;100381.50;;;2.90;100.00
14818;BME280;7500;57.698;11.986;2022-11-21T01:25:16;100378.69;;;2.99;100.00
14818;BME280;7500;57.698;11.986;2022-11-21T01:27:43;100377.84;;;2.97;100.00
14818;BME280;7500;57.698;11.986;2022-11-21T01:30:10;100368.94;;;3.05;100.00
14818;BME280;7500;57.698;11.986;2022-11-21T01:32:38;100373.38;;;3.02;100.00
14818;BME280;7500;57.698;11.986;2022-11-21T01:35:06;100363.88;;;2.99;100.00
14818;BME280;7500;57.698;11.986;2022-11-21T01:37:33;100353.00;;;2.84;100.00
14818;BME280;7500;57.698;11.986;2022-11-21T01:40:00;100361.06;;;2.75;100.00
14818;BME280;7500;57.698;11.986;2022-11-21T01:42:28;100362.97;;;2.68;100.00
14818;BME280;7500;57.698;11.986;2022-11-21T01:44:55;100363.66;;;2.75;100.00
14818;BME280;7500;57.698;11.986;2022-11-21T01:47:22;100353.22;;;2.75;100.00
14818;BME280;7500;57.698;11.986;2022-11-21T01:49:50;100359.97;;;2.83;100.00
14818;BME280;7500;57.698;11.986;2022-11-21T01:52:22;100360.66;;;2.90;100.00
14818;BME280;7500;57.698;11.986;2022-11-21T01:54:53;100353.75;;;2.89;100.00
14818;BME280;7500;57.698;11.986;2022-11-21T01:57:25;100358.78;;;2.95;100.00
14818;BME280;7500;57.698;11.986;2022-11-21T01:59:57;100358.72;;;2.96;100.00
14818;BME280;7500;57.698;11.986;2022-11-21T02:02:28;100351.94;;;2.91;100.00
14818;BME280;7500;57.698;11.986;2022-11-21T02:04:56;100359.59;;;2.97;100.00
14818;BME280;7500;57.698;11.986;2022-11-21T02:07:27;100353.56;;;2.95;100.00
14818;BME280;7500;57.698;11.986;2022-11-21T02:09:58;100348.28;;;2.98;100.00
14818;BME280;7500;57.698;11.986;2022-11-21T02:12:29;100344.63;;;3.05;100.00
14818;BME280;7500;57.698;11.986;2022-11-21T02:14:59;100350.81;;;3.01;100.00
14818;BME280;7500;57.698;11.986;2022-11-21T02:17:28;100346.50;;;2.98;100.00
14818;BME280;7500;57.698;11.986;2022-11-21T02:19:56;100343.81;;;3.01;100.00
14818;BME280;7500;57.698;11.986;2022-11-21T02:22:32;100340.25;;;3.05;100.00
14818;BME280;7500;57.698;11.986;2022-11-21T02:25:05;100348.31;;;2.64;100.00
14818;BME280;7500;57.698;11.986;2022-11-21T02:27:32;100349.31;;;2.59;100.00
14818;BME280;7500;57.698;11.986;2022-11-21T02:30:00;100349.56;;;2.50;100.00
14818;BME280;7500;57.698;11.986;2022-11-21T02:32:32;100361.13;;;2.38;100.00
14818;BME280;7500;57.698;11.986;2022-11-21T02:34:59;100343.72;;;2.40;100.00
14818;BME280;7500;57.698;11.986;2022-11-21T02:37:26;100339.44;;;2.38;100.00
14818;BME280;7500;57.698;11.986;2022-11-21T02:39:53;100334.34;;;2.33;100.00
14818;BME280;7500;57.698;11.986;2022-11-21T02:42:27;100327.41;;;2.34;100.00
14818;BME280;7500;57.698;11.986;2022-11-21T02:45:02;100333.25;;;2.42;100.00
14818;BME280;7500;57.698;11.986;2022-11-21T02:47:31;100325.44;;;2.42;100.00
14818;BME280;7500;57.698;11.986;2022-11-21T02:50:03;100326.31;;;2.41;100.00
14818;BME280;7500;57.698;11.986;2022-11-21T02:52:34;100325.44;;;2.42;100.00
14818;BME280;7500;57.698;11.986;2022-11-21T02:55:01;100327.19;;;2.41;100.00
14818;BME280;7500;57.698;11.986;2022-11-21T02:57:29;100307.94;;;2.47;100.00
14818;BME280;7500;57.698;11.986;2022-11-21T02:59:56;100311.38;;;2.49;100.00
14818;BME280;7500;57.698;11.986;2022-11-21T03:02:23;100306.94;;;2.52;100.00
14818;BME280;7500;57.698;11.986;2022-11-21T03:04:50;100305.06;;;2.57;100.00
14818;BME280;7500;57.698;11.986;2022-11-21T03:07:17;100300.59;;;2.62;100.00
14818;BME280;7500;57.698;11.986;2022-11-21T03:09:43;100292.13;;;2.54;100.00
14818;BME280;7500;57.698;11.986;2022-11-21T03:12:10;100300.72;;;2.58;100.00
14818;BME280;7500;57.698;11.986;2022-11-21T03:14:38;100293.72;;;2.60;100.00
14818;BME280;7500;57.698;11.986;2022-11-21T03:17:05;100296.34;;;2.58;100.00
14818;BME280;7500;57.698;11.986;2022-11-21T03:19:32;100296.25;;;2.61;100.00
14818;BME280;7500;57.698;11.986;2022-11-21T03:21:59;100303.97;;;2.66;100.00
14818;BME280;7500;57.698;11.986;2022-11-21T03:24:25;100301.41;;;2.64;100.00
14818;BME280;7500;57.698;11.986;2022-11-21T03:26:52;100291.13;;;2.60;100.00
14818;BME280;7500;57.698;11.986;2022-11-21T03:29:19;100297.22;;;2.59;100.00
14818;BME280;7500;57.698;11.986;2022-11-21T03:31:47;100286.94;;;2.53;100.00
14818;BME280;7500;57.698;11.986;2022-11-21T03:34:14;100302.28;;;2.63;100.00
14818;BME280;7500;57.698;11.986;2022-11-21T03:36:41;100297.97;;;2.62;100.00
14818;BME280;7500;57.698;11.986;2022-11-21T03:39:08;100295.44;;;2.61;100.00
14818;BME280;7500;57.698;11.986;2022-11-21T03:41:34;100303.16;;;2.64;100.00
14818;BME280;7500;57.698;11.986;2022-11-21T03:44:03;100291.06;;;2.61;100.00
14818;BME280;7500;57.698;11.986;2022-11-21T03:46:32;100296.16;;;2.66;100.00
14818;BME280;7500;57.698;11.986;2022-11-21T03:49:02;100287.31;;;2.71;100.00
14818;BME280;7500;57.698;11.986;2022-11-21T03:51:30;100289.03;;;2.72;100.00
14818;BME280;7500;57.698;11.986;2022-11-21T03:53:57;100284.63;;;2.74;100.00
14818;BME280;7500;57.698;11.986;2022-11-21T03:56:24;100281.06;;;2.77;100.00
14818;BME280;7500;57.698;11.986;2022-11-21T03:58:51;100276.66;;;2.80;100.00
14818;BME280;7500;57.698;11.986;2022-11-21T04:01:18;100281.06;;;2.77;100.00
14818;BME280;7500;57.698;11.986;2022-11-21T04:03:45;100275.88;;;2.77;100.00
14818;BME280;7500;57.698;11.986;2022-11-21T04:06:15;100279.28;;;2.79;100.00
14818;BME280;7500;57.698;11.986;2022-11-21T04:08:42;100268.94;;;2.76;100.00
14818;BME280;7500;57.698;11.986;2022-11-21T04:11:09;100270.84;;;2.71;100.00
14818;BME280;7500;57.698;11.986;2022-11-21T04:13:37;100281.16;;;2.74;100.00
14818;BME280;7500;57.698;11.986;2022-11-21T04:16:04;100268.19;;;2.72;100.00
14818;BME280;7500;57.698;11.986;2022-11-21T04:18:32;100265.72;;;2.68;100.00
14818;BME280;7500;57.698;11.986;2022-11-21T04:21:01;100270.78;;;2.72;100.00
14818;BME280;7500;57.698;11.986;2022-11-21T04:23:29;100267.22;;;2.75;100.00
14818;BME280;7500;57.698;11.986;2022-11-21T04:25:56;100267.06;;;2.81;100.00
14818;BME280;7500;57.698;11.986;2022-11-21T04:28:23;100266.31;;;2.77;100.00
14818;BME280;7500;57.698;11.986;2022-11-21T04:30:50;100262.06;;;2.73;100.00
14818;BME280;7500;57.698;11.986;2022-11-21T04:33:17;100260.31;;;2.74;100.00
14818;BME280;7500;57.698;11.986;2022-11-21T04:35:45;100262.13;;;2.72;100.00
14818;BME280;7500;57.698;11.986;2022-11-21T04:38:13;100186.03;;;2.29;100.00
14818;BME280;7500;57.698;11.986;2022-11-21T04:40:42;100257.69;;;2.75;100.00
14818;BME280;7500;57.698;11.986;2022-11-21T04:43:09;100246.22;;;2.81;100.00
14818;BME280;7500;57.698;11.986;2022-11-21T04:45:36;100250.50;;;2.83;100.00
14818;BME280;7500;57.698;11.986;2022-11-21T04:48:03;100252.13;;;2.87;100.00
14818;BME280;7500;57.698;11.986;2022-11-21T04:50:29;100257.38;;;2.86;100.00
14818;BME280;7500;57.698;11.986;2022-11-21T04:52:56;100249.56;;;2.86;100.00
14818;BME280;7500;57.698;11.986;2022-11-21T04:55:25;100248.44;;;2.94;100.00
14818;BME280;7500;57.698;11.986;2022-11-21T04:57:55;100245.63;;;3.02;100.00
14818;BME280;7500;57.698;11.986;2022-11-21T05:00:22;100261.28;;;3.02;100.00
14818;BME280;7500;57.698;11.986;2022-11-21T05:02:49;100254.25;;;3.04;100.00
14818;BME280;7500;57.698;11.986;2022-11-21T05:05:16;100244.72;;;3.03;100.00
14818;BME280;7500;57.698;11.986;2022-11-21T05:07:43;100238.69;;;3.01;100.00
14818;BME280;7500;57.698;11.986;2022-11-21T05:10:09;100254.25;;;3.04;100.00
14818;BME280;7500;57.698;11.986;2022-11-21T05:12:36;100246.28;;;2.79;100.00
14818;BME280;7500;57.698;11.986;2022-11-21T05:15:22;100239.28;;;2.80;100.00
14818;BME280;7500;57.698;11.986;2022-11-21T05:17:49;100238.78;;;2.67;100.00
14818;BME280;7500;57.698;11.986;2022-11-21T05:20:16;100232.34;;;2.80;100.00
14818;BME280;7500;57.698;11.986;2022-11-21T05:22:43;100228.84;;;2.81;100.00
14818;BME280;7500;57.698;11.986;2022-11-21T05:25:14;100240.81;;;2.88;100.00
14818;BME280;7500;57.698;11.986;2022-11-21T05:27:41;100243.53;;;2.84;100.00
14818;BME280;7500;57.698;11.986;2022-11-21T05:30:09;100240.06;;;2.83;100.00
14818;BME280;7500;57.698;11.986;2022-11-21T05:32:37;100237.59;;;2.79;100.00
14818;BME280;7500;57.698;11.986;2022-11-21T05:35:05;100236.66;;;2.81;100.00
14818;BME280;7500;57.698;11.986;2022-11-21T05:37:32;100232.44;;;2.76;100.00
14818;BME280;7500;57.698;11.986;2022-11-21T05:39:59;100236.09;;;2.70;100.00
14818;BME280;7500;57.698;11.986;2022-11-21T05:42:26;100234.25;;;2.74;100.00
14818;BME280;7500;57.698;11.986;2022-11-21T05:45:08;100226.31;;;2.78;100.00
14818;BME280;7500;57.698;11.986;2022-11-21T05:47:36;100228.91;;;2.78;100.00
14818;BME280;7500;57.698;11.986;2022-11-21T05:50:05;100234.97;;;2.79;100.00
14818;BME280;7500;57.698;11.986;2022-11-21T05:52:32;100231.69;;;2.72;100.00
14818;BME280;7500;57.698;11.986;2022-11-21T05:54:58;100229.94;;;2.73;100.00
14818;BME280;7500;57.698;11.986;2022-11-21T05:57:25;100225.19;;;2.87;100.00
14818;BME280;7500;57.698;11.986;2022-11-21T05:59:52;100238.19;;;2.88;100.00
14818;BME280;7500;57.698;11.986;2022-11-21T06:02:19;100228.63;;;2.89;100.00
14818;BME280;7500;57.698;11.986;2022-11-21T06:05:05;100234.88;;;2.83;100.00
14818;BME280;7500;57.698;11.986;2022-11-21T06:07:32;100241.72;;;2.87;100.00
14818;BME280;7500;57.698;11.986;2022-11-21T06:09:59;100175.06;;;2.48;100.00
14818;BME280;7500;57.698;11.986;2022-11-21T06:12:25;100250.41;;;2.86;100.00
14818;BME280;7500;57.698;11.986;2022-11-21T06:14:52;100235.63;;;2.87;100.00
14818;BME280;7500;57.698;11.986;2022-11-21T06:17:19;100233.97;;;2.84;100.00
14818;BME280;7500;57.698;11.986;2022-11-21T06:19:46;100243.41;;;2.88;100.00
14818;BME280;7500;57.698;11.986;2022-11-21T06:22:14;100243.50;;;2.85;100.00
14818;BME280;7500;57.698;11.986;2022-11-21T06:24:41;100244.25;;;2.89;100.00
14818;BME280;7500;57.698;11.986;2022-11-21T06:27:08;100249.28;;;2.95;100.00
14818;BME280;7500;57.698;11.986;2022-11-21T06:29:34;100248.66;;;2.87;100.00
14818;BME280;7500;57.698;11.986;2022-11-21T06:32:01;100261.69;;;2.87;100.00
14818;BME280;7500;57.698;11.986;2022-11-21T06:34:28;100256.38;;;2.90;100.00
14818;BME280;7500;57.698;11.986;2022-11-21T06:36:55;100257.13;;;2.95;100.00
14818;BME280;7500;57.698;11.986;2022-11-21T06:39:23;100257.34;;;2.87;100.00
14818;BME280;7500;57.698;11.986;2022-11-21T06:41:50;100256.53;;;2.85;100.00
14818;BME280;7500;57.698;11.986;2022-11-21T06:44:17;100264.16;;;2.91;100.00
14818;BME280;7500;57.698;11.986;2022-11-21T06:46:44;100260.63;;;2.94;100.00
14818;BME280;7500;57.698;11.986;2022-11-21T06:49:11;100270.81;;;3.01;100.00
14818;BME280;7500;57.698;11.986;2022-11-21T06:51:38;100268.34;;;2.97;100.00
14818;BME280;7500;57.698;11.986;2022-11-21T06:54:05;100271.00;;;2.95;100.00
14818;BME280;7500;57.698;11.986;2022-11-21T06:56:33;100275.19;;;3.01;100.00
14818;BME280;7500;57.698;11.986;2022-11-21T06:59:00;100229.75;;;2.79;100.00
14818;BME280;7500;57.698;11.986;2022-11-21T07:01:26;100276.13;;;2.98;100.00
14818;BME280;7500;57.698;11.986;2022-11-21T07:03:53;100273.41;;;3.03;100.00
14818;BME280;7500;57.698;11.986;2022-11-21T07:06:21;100282.94;;;3.04;100.00
14818;BME280;7500;57.698;11.986;2022-11-21T07:08:51;100283.03;;;3.01;100.00
14818;BME280;7500;57.698;11.986;2022-11-21T07:11:18;100277.91;;;2.98;100.00
14818;BME280;7500;57.698;11.986;2022-11-21T07:13:47;100285.28;;;2.82;100.00
14818;BME280;7500;57.698;11.986;2022-11-21T07:16:12;100292.22;;;2.83;100.00
14818;BME280;7500;57.698;11.986;2022-11-21T07:18:40;100295.63;;;2.85;100.00
14818;BME280;7500;57.698;11.986;2022-11-21T07:21:08;100302.56;;;2.85;100.00
14818;BME280;7500;57.698;11.986;2022-11-21T07:23:35;100308.38;;;2.94;100.00
14818;BME280;7500;57.698;11.986;2022-11-21T07:26:03;100310.09;;;2.95;100.00
14818;BME280;7500;57.698;11.986;2022-11-21T07:28:32;100303.22;;;2.93;100.00
14818;BME280;7500;57.698;11.986;2022-11-21T07:31:01;100303.22;;;2.93;100.00
14818;BME280;7500;57.698;11.986;2022-11-21T07:33:29;100306.81;;;2.89;100.00
14818;BME280;7500;57.698;11.986;2022-11-21T07:35:56;100293.84;;;2.87;100.00
14818;BME280;7500;57.698;11.986;2022-11-21T07:38:24;100306.69;;;2.93;100.00
14818;BME280;7500;57.698;11.986;2022-11-21T07:40:51;100304.13;;;2.92;100.00
14818;BME280;7500;57.698;11.986;2022-11-21T07:43:18;100314.56;;;2.90;100.00
14818;BME280;7500;57.698;11.986;2022-11-21T07:45:45;100310.16;;;2.94;100.00
14818;BME280;7500;57.698;11.986;2022-11-21T07:48:14;100315.31;;;2.95;100.00
14818;BME280;7500;57.698;11.986;2022-11-21T07:50:41;100319.69;;;2.95;100.00
14818;BME280;7500;57.698;11.986;2022-11-21T07:53:09;100317.19;;;2.90;100.00
14818;BME280;7500;57.698;11.986;2022-11-21T07:55:36;100318.56;;;3.03;100.00
14818;BME280;7500;57.698;11.986;2022-11-21T07:58:05;100317.66;;;3.04;100.00
14818;BME280;7500;57.698;11.986;2022-11-21T08:00:33;100322.66;;;3.12;100.00
14818;BME280;7500;57.698;11.986;2022-11-21T08:03:00;100319.53;;;2.99;100.00
14818;BME280;7500;57.698;11.986;2022-11-21T08:05:29;100334.06;;;3.08;100.00
14818;BME280;7500;57.698;11.986;2022-11-21T08:07:56;100336.69;;;3.08;100.00
14818;BME280;7500;57.698;11.986;2022-11-21T08:10:23;100331.38;;;3.11;100.00
14818;BME280;7500;57.698;11.986;2022-11-21T08:12:49;100333.75;;;3.20;100.00
14818;BME280;7500;57.698;11.986;2022-11-21T08:15:16;100322.63;;;3.13;100.00
14818;BME280;7500;57.698;11.986;2022-11-21T08:17:43;100325.91;;;3.21;100.00
14818;BME280;7500;57.698;11.986;2022-11-21T08:20:11;100339.59;;;3.28;100.00
14818;BME280;7500;57.698;11.986;2022-11-21T08:22:39;100345.81;;;3.24;100.00
14818;BME280;7500;57.698;11.986;2022-11-21T08:33:45;100338.88;;;3.23;100.00
14818;BME280;7500;57.698;11.986;2022-11-21T08:36:11;100341.41;;;3.26;100.00
14818;BME280;7500;57.698;11.986;2022-11-21T08:38:40;100340.97;;;3.69;100.00
14818;BME280;7500;57.698;11.986;2022-11-21T08:41:06;100349.81;;;3.35;100.00
14818;BME280;7500;57.698;11.986;2022-11-21T08:43:51;100351.16;;;3.19;100.00
14818;BME280;7500;57.698;11.986;2022-11-21T08:46:18;100352.13;;;3.15;100.00
14818;BME280;7500;57.698;11.986;2022-11-21T08:48:44;100351.97;;;3.21;100.00
14818;BME280;7500;57.698;11.986;2022-11-21T08:51:11;100353.13;;;3.70;100.00
14818;BME280;7500;57.698;11.986;2022-11-21T08:53:40;100346.75;;;3.79;100.00
14818;BME280;7500;57.698;11.986;2022-11-21T08:56:06;100350.13;;;3.82;100.00
14818;BME280;7500;57.698;11.986;2022-11-21T08:58:33;100361.19;;;3.90;100.00
14818;BME280;7500;57.698;11.986;2022-11-21T09:01:00;100354.50;;;3.82;100.00
14818;BME280;7500;57.698;11.986;2022-11-21T09:03:27;100357.06;;;3.83;100.00
14818;BME280;7500;57.698;11.986;2022-11-21T09:05:55;100352.06;;;3.76;100.00
14818;BME280;7500;57.698;11.986;2022-11-21T09:08:22;100371.91;;;3.81;100.00
14818;BME280;7500;57.698;11.986;2022-11-21T09:10:50;100365.88;;;3.79;100.00
14818;BME280;7500;57.698;11.986;2022-11-21T09:13:18;100362.50;;;3.76;100.00
14818;BME280;7500;57.698;11.986;2022-11-21T09:15:45;100371.69;;;3.89;100.00
14818;BME280;7500;57.698;11.986;2022-11-21T09:18:29;100376.63;;;3.98;100.00
14818;BME280;7500;57.698;11.986;2022-11-21T09:20:56;100369.22;;;3.55;100.00
14818;BME280;7500;57.698;11.986;2022-11-21T09:23:23;100380.56;;;3.54;100.00
14818;BME280;7500;57.698;11.986;2022-11-21T09:25:51;100380.31;;;3.62;100.00
14818;BME280;7500;57.698;11.986;2022-11-21T09:28:18;100384.72;;;3.61;100.00
14818;BME280;7500;57.698;11.986;2022-11-21T09:30:45;100377.84;;;3.57;100.00
14818;BME280;7500;57.698;11.986;2022-11-21T09:33:13;100379.75;;;3.52;100.00
14818;BME280;7500;57.698;11.986;2022-11-21T09:35:54;100379.81;;;3.49;100.00
14818;BME280;7500;57.698;11.986;2022-11-21T09:38:23;100397.03;;;3.56;100.00
14818;BME280;7500;57.698;11.986;2022-11-21T09:40:57;100382.59;;;3.43;100.00
14818;BME280;7500;57.698;11.986;2022-11-21T09:43:52;100391.53;;;3.36;100.00
14818;BME280;7500;57.698;11.986;2022-11-21T09:46:31;100391.78;;;3.28;100.00
14818;BME280;7500;57.698;11.986;2022-11-21T09:49:04;100357.66;;;3.05;100.00
14818;BME280;7500;57.698;11.986;2022-11-21T09:51:36;100393.44;;;3.30;100.00
14818;BME280;7500;57.698;11.986;2022-11-21T09:54:12;100398.69;;;3.29;100.00
14818;BME280;7500;57.698;11.986;2022-11-21T09:56:44;100402.22;;;3.28;100.00
14818;BME280;7500;57.698;11.986;2022-11-21T09:59:24;100393.59;;;3.24;100.00
14818;BME280;7500;57.698;11.986;2022-11-21T10:01:53;100406.44;;;3.32;100.00
14818;BME280;7500;57.698;11.986;2022-11-21T10:04:19;100402.66;;;3.41;100.00
14818;BME280;7500;57.698;11.986;2022-11-21T10:06:52;100399.16;;;3.42;100.00
14818;BME280;7500;57.698;11.986;2022-11-21T10:09:28;100415.97;;;3.33;100.00
14818;BME280;7500;57.698;11.986;2022-11-21T10:12:05;100404.97;;;3.22;100.00
14818;BME280;7500;57.698;11.986;2022-11-21T10:14:56;100406.38;;;3.34;100.00
14818;BME280;7500;57.698;11.986;2022-11-21T10:17:33;100404.50;;;3.39;100.00
14818;BME280;7500;57.698;11.986;2022-11-21T10:20:21;100407.53;;;3.53;100.00
14818;BME280;7500;57.698;11.986;2022-11-21T10:23:02;100418.63;;;3.61;100.00
14818;BME280;7500;57.698;11.986;2022-11-21T10:25:35;100409.25;;;3.54;100.00
14818;BME280;7500;57.698;11.986;2022-11-21T10:28:09;100411.13;;;3.49;100.00
14818;BME280;7500;57.698;11.986;2022-11-21T10:30:41;100407.88;;;3.41;100.00
14818;BME280;7500;57.698;11.986;2022-11-21T10:33:14;100410.53;;;3.40;100.00
14818;BME280;7500;57.698;11.986;2022-11-21T10:35:45;100410.59;;;3.38;100.00
14818;BME280;7500;57.698;11.986;2022-11-21T10:38:20;100416.97;;;3.29;100.00
14818;BME280;7500;57.698;11.986;2022-11-21T10:40:50;100406.28;;;3.37;100.00
14818;BME280;7500;57.698;11.986;2022-11-21T10:43:25;100404.56;;;3.36;100.00
14818;BME280;7500;57.698;11.986;2022-11-21T10:46:29;100403.69;;;3.36;100.00
14818;BME280;7500;57.698;11.986;2022-11-21T10:48:58;100414.38;;;3.27;100.00
14818;BME280;7500;57.698;11.986;2022-11-21T10:51:35;100421.06;;;3.37;100.00
14818;BME280;7500;57.698;11.986;2022-11-21T10:54:05;100420.38;;;3.31;100.00
14818;BME280;7500;57.698;11.986;2022-11-21T10:56:51;100424.56;;;3.36;100.00
14818;BME280;7500;57.698;11.986;2022-11-21T10:59:22;100415.25;;;3.28;100.00
14818;BME280;7500;57.698;11.986;2022-11-21T11:01:55;100422.25;;;3.26;100.00
14818;BME280;7500;57.698;11.986;2022-11-21T11:04:22;100424.19;;;3.19;100.00
14818;BME280;7500;57.698;11.986;2022-11-21T11:06:49;100420.78;;;3.16;100.00
14818;BME280;7500;57.698;11.986;2022-11-21T11:09:24;100426.91;;;3.15;100.00
14818;BME280;7500;57.698;11.986;2022-11-21T11:11:52;100430.97;;;3.25;100.00
14818;BME280;7500;57.698;11.986;2022-11-21T11:14:30;100427.47;;;3.26;100.00
14818;BME280;7500;57.698;11.986;2022-11-21T11:16:57;100431.06;;;3.22;100.00
14818;BME280;7500;57.698;11.986;2022-11-21T11:19:26;100433.44;;;3.31;100.00
14818;BME280;7500;57.698;11.986;2022-11-21T11:21:53;100437.03;;;3.25;100.00
14818;BME280;7500;57.698;11.986;2022-11-21T11:24:23;100433.09;;;3.11;100.00
14818;BME280;7500;57.698;11.986;2022-11-21T11:26:56;100434.88;;;3.09;100.00
14818;BME280;7500;57.698;11.986;2022-11-21T11:29:25;100445.31;;;3.09;100.00
14818;BME280;7500;57.698;11.986;2022-11-21T11:31:55;100445.81;;;3.23;100.00
14818;BME280;7500;57.698;11.986;2022-11-21T11:34:24;100439.69;;;3.24;100.00
14818;BME280;7500;57.698;11.986;2022-11-21T11:37:02;100448.56;;;3.18;100.00
14818;BME280;7500;57.698;11.986;2022-11-21T11:39:39;100447.00;;;3.11;100.00
14818;BME280;7500;57.698;11.986;2022-11-21T11:42:39;100446.25;;;3.06;100.00
14818;BME280;7500;57.698;11.986;2022-11-21T11:46:01;100439.94;;;3.15;100.00
14818;BME280;7500;57.698;11.986;2022-11-21T11:48:49;100455.22;;;3.28;100.00
14818;BME280;7500;57.698;11.986;2022-11-21T11:51:23;100426.09;;;3.13;100.00
14818;BME280;7500;57.698;11.986;2022-11-21T11:53:54;100425.59;;;3.31;100.00
14818;BME280;7500;57.698;11.986;2022-11-21T11:56:26;100437.03;;;3.25;100.00
14818;BME280;7500;57.698;11.986;2022-11-21T11:58:59;100426.34;;;3.04;100.00
14818;BME280;7500;57.698;11.986;2022-11-21T12:01:34;100433.28;;;3.05;100.00
14818;BME280;7500;57.698;11.986;2022-11-21T12:04:10;100435.97;;;3.02;100.00
14818;BME280;7500;57.698;11.986;2022-11-21T12:06:42;100427.31;;;3.00;100.00
14818;BME280;7500;57.698;11.986;2022-11-21T12:09:16;100438.44;;;3.06;100.00
14818;BME280;7500;57.698;11.986;2022-11-21T12:11:53;100429.59;;;3.12;100.00
14818;BME280;7500;57.698;11.986;2022-11-21T12:14:47;100426.75;;;3.21;100.00
14818;BME280;7500;57.698;11.986;2022-11-21T12:17:38;100431.22;;;3.16;100.00
14818;BME280;7500;57.698;11.986;2022-11-21T12:20:15;100432.84;;;3.20;100.00
14818;BME280;7500;57.698;11.986;2022-11-21T12:22:46;100430.09;;;3.26;100.00
14818;BME280;7500;57.698;11.986;2022-11-21T12:25:14;100441.25;;;3.31;100.00
14818;BME280;7500;57.698;11.986;2022-11-21T12:27:42;100444.41;;;3.41;100.00
14818;BME280;7500;57.698;11.986;2022-11-21T12:30:43;100434.75;;;3.45;100.00
14818;BME280;7500;57.698;11.986;2022-11-21T12:33:18;100432.81;;;3.51;100.00
14818;BME280;7500;57.698;11.986;2022-11-21T12:36:18;100442.38;;;3.52;100.00
14818;BME280;7500;57.698;11.986;2022-11-21T12:39:01;100438.09;;;3.50;100.00
14818;BME280;7500;57.698;11.986;2022-11-21T12:41:36;100433.66;;;3.53;100.00
14818;BME280;7500;57.698;11.986;2022-11-21T12:44:34;100435.91;;;3.35;100.00
14818;BME280;7500;57.698;11.986;2022-11-21T12:47:19;100442.88;;;3.34;100.00
14818;BME280;7500;57.698;11.986;2022-11-21T12:49:51;100436.03;;;3.31;100.00
14818;BME280;7500;57.698;11.986;2022-11-21T12:52:45;100445.50;;;3.34;100.00
14818;BME280;7500;57.698;11.986;2022-11-21T12:55:34;100446.63;;;3.25;100.00
14818;BME280;7500;57.698;11.986;2022-11-21T12:58:14;100445.81;;;3.23;100.00
14818;BME280;7500;57.698;11.986;2022-11-21T13:01:14;100454.69;;;3.16;100.00
14818;BME280;7500;57.698;11.986;2022-11-21T13:03:50;100446.03;;;3.15;100.00
14818;BME280;7500;57.698;11.986;2022-11-21T13:06:22;100452.78;;;3.22;100.00
14818;BME280;7500;57.698;11.986;2022-11-21T13:09:00;100451.84;;;3.25;100.00
14818;BME280;7500;57.698;11.986;2022-11-21T13:11:38;100446.56;;;3.26;100.00
14818;BME280;7500;57.698;11.986;2022-11-21T13:14:32;100437.75;;;3.32;100.00
14818;BME280;7500;57.698;11.986;2022-11-21T13:17:10;100443.34;;;3.48;100.00